createdAt,value
2023-01-19T00:00:00.803Z,24.10
2023-01-19T00:04:01.667Z,22.80
2023-01-19T00:07:35.552Z,23.30
2023-01-19T00:11:22.100Z,22.10
2023-01-19T00:15:07.011Z,22.30
2023-01-19T00:18:44.854Z,23.20
2023-01-19T00:22:22.356Z,23.60
2023-01-19T00:26:07.812Z,22.40
2023-01-19T00:29:53.188Z,22.90
2023-01-19T00:33:38.391Z,23.50
2023-01-19T00:37:23.761Z,22.50
2023-01-19T00:41:01.244Z,23.40
2023-01-19T00:44:46.331Z,24.30
2023-01-19T00:48:20.375Z,21.70
2023-01-19T00:51:48.567Z,22.60
2023-01-19T00:55:34.114Z,25.50
2023-01-19T00:59:19.505Z,25.90
2023-01-19T01:03:05.287Z,23.10
2023-01-19T01:06:38.997Z,22.30
2023-01-19T01:10:24.304Z,22.40
2023-01-19T01:14:09.702Z,21.50
2023-01-19T01:17:55.332Z,23.90
2023-01-19T01:21:43.126Z,23.40
2023-01-19T01:25:28.759Z,23.70
2023-01-19T01:29:13.864Z,23.80
2023-01-19T01:32:59.050Z,23.40
2023-01-19T01:36:45.762Z,23.80
2023-01-19T01:40:31.240Z,21.00
2023-01-19T01:44:18.527Z,21.60
2023-01-19T01:48:03.778Z,22.10
2023-01-19T01:51:48.858Z,22.60
2023-01-19T01:55:33.947Z,21.90
2023-01-19T01:59:19.108Z,21.50
2023-01-19T02:03:13.476Z,22.50
2023-01-19T02:06:56.904Z,23.00
2023-01-19T02:10:38.825Z,22.30
2023-01-19T02:14:16.541Z,24.50
2023-01-19T02:18:01.505Z,23.40
2023-01-19T02:21:55.338Z,23.10
2023-01-19T02:25:40.404Z,22.90
2023-01-19T02:29:16.626Z,23.70
2023-01-19T02:32:43.152Z,25.30
2023-01-19T02:36:28.197Z,24.30
2023-01-19T02:40:23.542Z,24.10
2023-01-19T02:44:08.758Z,25.50
2023-01-19T02:47:56.940Z,23.30
2023-01-19T02:51:44.976Z,25.70
2023-01-19T02:55:49.399Z,25.20
2023-01-19T02:59:26.448Z,23.10
2023-01-19T03:03:17.662Z,22.00
2023-01-19T03:07:22.301Z,22.10
2023-01-19T03:11:13.525Z,21.40
2023-01-19T03:15:10.890Z,21.60
2023-01-19T03:18:49.463Z,22.20
2023-01-19T03:22:35.822Z,23.90
2023-01-19T03:26:09.270Z,22.50
2023-01-19T03:29:54.647Z,21.90
2023-01-19T03:33:51.289Z,23.40
2023-01-19T03:37:36.456Z,23.80
2023-01-19T03:41:22.482Z,23.70
2023-01-19T03:44:52.564Z,22.70
2023-01-19T03:48:37.805Z,23.40
2023-01-19T03:52:22.727Z,24.40
2023-01-19T03:55:56.659Z,22.60
2023-01-19T03:59:42.007Z,23.20
2023-01-19T04:03:27.110Z,23.40
2023-01-19T04:07:13.326Z,20.80
2023-01-19T04:10:58.821Z,23.10
2023-01-19T04:14:43.785Z,21.10
2023-01-19T04:18:29.029Z,18.60
2023-01-19T04:22:13.840Z,18.70
2023-01-19T04:25:59.119Z,19.20
2023-01-19T04:29:44.432Z,19.20
2023-01-19T04:33:29.899Z,20.70
2023-01-19T04:37:14.931Z,19.80
2023-01-19T04:40:59.824Z,19.30
2023-01-19T04:44:46.043Z,20.10
2023-01-19T04:48:30.955Z,20.30
2023-01-19T04:52:16.645Z,21.50
2023-01-19T04:56:01.737Z,19.10
2023-01-19T04:59:46.731Z,22.20
2023-01-19T05:03:31.226Z,21.00
2023-01-19T05:07:09.802Z,19.50
2023-01-19T05:10:54.678Z,20.40
2023-01-19T05:14:40.006Z,19.80
2023-01-19T05:18:25.178Z,21.40
2023-01-19T05:22:10.682Z,19.40
2023-01-19T05:25:57.017Z,19.20
2023-01-19T05:29:42.536Z,18.90
2023-01-19T05:33:33.747Z,18.90
2023-01-19T05:37:19.369Z,17.50
2023-01-19T05:41:04.549Z,17.80
2023-01-19T05:44:50.042Z,19.10
2023-01-19T05:48:34.972Z,19.00
2023-01-19T05:52:19.977Z,15.90
2023-01-19T05:56:05.475Z,17.70
2023-01-19T05:59:51.754Z,17.70
2023-01-19T06:03:37.241Z,18.50
2023-01-19T06:07:24.371Z,16.90
2023-01-19T06:11:11.854Z,17.90
2023-01-19T06:14:48.307Z,19.30
2023-01-19T06:18:26.608Z,17.10
2023-01-19T06:22:11.931Z,17.90
2023-01-19T06:25:47.416Z,17.50
2023-01-19T06:29:32.640Z,17.80
2023-01-19T06:33:18.211Z,17.60
2023-01-19T06:36:57.427Z,19.50
2023-01-19T06:40:42.307Z,17.10
2023-01-19T06:44:27.348Z,18.90
2023-01-19T06:48:12.414Z,18.00
2023-01-19T06:51:46.353Z,17.50
2023-01-19T06:55:20.138Z,18.50
2023-01-19T06:58:57.600Z,20.30
2023-01-19T07:02:42.751Z,18.50
2023-01-19T07:06:28.171Z,18.60
2023-01-19T07:09:55.685Z,18.60
2023-01-19T07:13:40.684Z,17.50
2023-01-19T07:17:26.104Z,17.70
2023-01-19T07:21:11.336Z,18.00
2023-01-19T07:24:56.712Z,18.80
2023-01-19T07:28:41.904Z,17.80
2023-01-19T07:32:27.018Z,17.10
2023-01-19T07:36:12.178Z,16.10
2023-01-19T07:39:50.208Z,17.20
2023-01-19T07:43:35.491Z,17.00
2023-01-19T07:47:20.528Z,16.90
2023-01-19T07:51:05.940Z,17.70
2023-01-19T07:54:52.155Z,17.40
2023-01-19T07:58:38.704Z,17.20
2023-01-19T08:02:22.614Z,16.30
2023-01-19T08:06:06.192Z,16.90
2023-01-19T08:09:51.323Z,17.20
2023-01-19T08:13:35.559Z,17.00
2023-01-19T08:17:13.829Z,17.40
2023-01-19T08:20:52.497Z,17.80
2023-01-19T08:24:38.392Z,16.80
2023-01-19T08:28:22.223Z,17.50
2023-01-19T08:32:03.248Z,17.20
2023-01-19T08:35:37.177Z,17.90
2023-01-19T08:39:22.516Z,19.20
2023-01-19T08:44:56.851Z,18.10
2023-01-19T08:47:16.086Z,17.70
2023-01-19T08:51:02.266Z,17.40
2023-01-19T08:54:48.674Z,16.90
2023-01-19T08:58:35.043Z,16.50
2023-01-19T09:02:20.782Z,16.20
2023-01-19T09:06:06.945Z,15.10
2023-01-19T09:09:52.426Z,14.60
2023-01-19T09:13:36.854Z,15.80
2023-01-19T09:17:22.360Z,13.90
2023-01-19T09:21:07.782Z,14.90
2023-01-19T09:24:55.783Z,15.90
2023-01-19T09:28:30.450Z,14.30
2023-01-19T09:32:15.817Z,12.20
2023-01-19T09:35:49.898Z,12.70
2023-01-19T09:39:35.265Z,13.20
2023-01-19T09:43:23.289Z,12.80
2023-01-19T09:47:14.386Z,12.20
2023-01-19T09:50:59.959Z,13.10
2023-01-19T09:54:47.558Z,11.70
2023-01-19T09:58:32.754Z,11.10
2023-01-19T10:02:29.629Z,12.30
2023-01-19T10:06:35.951Z,11.70
2023-01-19T10:10:23.723Z,11.70
2023-01-19T10:14:17.427Z,11.90
2023-01-19T10:18:07.097Z,11.80
2023-01-19T10:22:01.956Z,12.40
2023-01-19T10:25:47.287Z,11.30
2023-01-19T10:29:32.501Z,13.00
2023-01-19T10:33:17.622Z,11.70
2023-01-19T10:37:17.617Z,12.00
2023-01-19T10:41:11.236Z,13.60
2023-01-19T10:45:05.784Z,12.70
2023-01-19T10:48:39.463Z,13.30
2023-01-19T10:52:30.173Z,14.00
2023-01-19T10:56:51.031Z,13.60
2023-01-19T11:00:40.111Z,13.30
2023-01-19T11:04:24.784Z,12.50
2023-01-19T11:08:22.351Z,13.30
2023-01-19T11:12:07.657Z,12.60
2023-01-19T11:15:53.312Z,12.60
2023-01-19T11:19:38.628Z,13.00
2023-01-19T11:23:24.769Z,13.70
2023-01-19T11:27:13.680Z,13.30
2023-01-19T11:31:01.934Z,11.70
2023-01-19T11:34:48.502Z,13.80
2023-01-19T11:38:33.959Z,13.60
2023-01-19T11:42:19.475Z,12.40
2023-01-19T11:46:07.419Z,13.20
2023-01-19T11:50:01.398Z,13.40
2023-01-19T11:53:40.784Z,12.70
2023-01-19T11:57:12.697Z,13.00
2023-01-19T12:01:06.094Z,12.90
2023-01-19T12:05:00.147Z,14.10
2023-01-19T12:08:45.399Z,13.30
2023-01-19T12:12:36.288Z,13.20
2023-01-19T12:16:24.462Z,13.60
2023-01-19T12:20:21.641Z,12.70
2023-01-19T12:24:13.194Z,13.60
2023-01-19T12:27:58.641Z,12.80
2023-01-19T12:31:43.261Z,13.20
2023-01-19T12:35:24.970Z,14.00
2023-01-19T12:39:31.196Z,14.70
2023-01-19T12:43:08.040Z,14.60
2023-01-19T12:46:50.652Z,14.70
2023-01-19T12:50:34.822Z,13.40
2023-01-19T12:54:21.220Z,14.10
2023-01-19T12:58:09.543Z,13.70
2023-01-19T13:01:52.695Z,15.00
2023-01-19T13:05:36.449Z,14.70
2023-01-19T13:09:26.182Z,15.10
2023-01-19T13:13:11.670Z,15.10
2023-01-19T13:16:59.418Z,16.80
2023-01-19T13:20:44.605Z,17.80
2023-01-19T13:24:29.722Z,18.10
2023-01-19T13:28:17.116Z,18.40
2023-01-19T13:32:02.159Z,17.90
2023-01-19T13:35:40.414Z,17.80
2023-01-19T13:39:25.689Z,18.90
2023-01-19T13:43:19.959Z,18.50
2023-01-19T13:46:57.682Z,18.00
2023-01-19T13:50:43.242Z,19.90
2023-01-19T13:54:33.630Z,19.00
2023-01-19T13:58:27.831Z,18.30
2023-01-19T14:02:24.807Z,17.90
2023-01-19T14:06:09.762Z,17.30
2023-01-19T14:09:55.505Z,19.10
2023-01-19T14:13:40.441Z,18.70
2023-01-19T14:17:14.340Z,16.50
2023-01-19T14:21:08.429Z,16.90
2023-01-19T14:25:11.628Z,18.10
2023-01-19T14:29:01.765Z,18.00
2023-01-19T14:32:47.397Z,16.10
2023-01-19T14:36:32.357Z,17.50
2023-01-19T14:40:11.305Z,16.30
2023-01-19T14:43:56.231Z,16.00
2023-01-19T14:47:41.158Z,16.50
2023-01-19T14:51:29.154Z,16.50
2023-01-19T14:55:16.626Z,16.00
2023-01-19T14:58:54.975Z,16.70
2023-01-19T15:02:40.075Z,15.80
2023-01-19T15:06:27.910Z,16.80
2023-01-19T15:10:05.997Z,17.00
2023-01-19T15:13:56.681Z,15.40
2023-01-19T15:17:34.395Z,16.50
2023-01-19T15:21:22.364Z,18.00
2023-01-19T15:25:09.307Z,15.80
2023-01-19T15:29:03.693Z,15.80
2023-01-19T15:32:54.815Z,14.60
2023-01-19T15:36:39.924Z,15.40
2023-01-19T15:40:17.521Z,16.00
2023-01-19T15:44:02.522Z,17.00
2023-01-19T15:47:37.664Z,15.90
2023-01-19T15:51:23.087Z,16.20
2023-01-19T15:55:11.620Z,17.50
2023-01-19T15:58:56.651Z,17.00
2023-01-19T16:02:41.965Z,17.80
2023-01-19T16:06:16.316Z,18.30
2023-01-19T16:10:01.314Z,19.20
2023-01-19T16:13:37.297Z,19.20
2023-01-19T16:17:10.755Z,21.80
2023-01-19T16:20:39.160Z,22.00
2023-01-19T16:24:24.582Z,21.30
2023-01-19T16:27:55.467Z,21.30
2023-01-19T16:31:40.897Z,21.30
2023-01-19T16:35:19.900Z,19.10
2023-01-19T16:39:05.272Z,18.40
2023-01-19T16:42:39.515Z,19.10
2023-01-19T16:46:40.010Z,17.00
2023-01-19T16:50:25.087Z,16.20
2023-01-19T16:54:01.988Z,17.50
2023-01-19T16:57:36.039Z,15.50
2023-01-19T17:01:21.267Z,15.00
2023-01-19T17:05:05.124Z,15.40
2023-01-19T17:08:50.313Z,15.40
2023-01-19T17:12:35.285Z,16.60
2023-01-19T17:16:20.372Z,16.80
2023-01-19T17:20:05.348Z,19.10
2023-01-19T17:23:50.715Z,18.90
2023-01-19T17:27:36.658Z,18.90
2023-01-19T17:31:23.150Z,19.30
2023-01-19T17:35:08.769Z,18.70
2023-01-19T17:38:55.283Z,19.50
2023-01-19T17:42:40.746Z,19.30
2023-01-19T17:45:56.307Z,17.60
2023-01-19T17:49:41.806Z,17.10
2023-01-19T17:53:25.510Z,17.40
2023-01-19T17:57:10.666Z,17.40
2023-01-19T18:00:56.029Z,18.60
2023-01-19T18:04:32.317Z,15.90
2023-01-19T18:08:06.061Z,16.70
2023-01-19T18:11:56.357Z,16.20
2023-01-19T18:15:42.196Z,17.40
2023-01-19T18:19:12.931Z,17.70
2023-01-19T18:22:58.404Z,16.60
2023-01-19T18:26:43.545Z,17.10
2023-01-19T18:30:11.714Z,16.40
2023-01-19T18:33:57.165Z,17.20
2023-01-19T18:37:36.389Z,17.60
2023-01-19T18:41:22.825Z,17.50
2023-01-19T18:45:08.371Z,18.80
2023-01-19T18:48:54.009Z,19.50
2023-01-19T18:52:39.279Z,18.50
2023-01-19T18:56:26.684Z,19.60
2023-01-19T19:00:12.233Z,19.90
2023-01-19T19:04:00.133Z,19.50
2023-01-19T19:07:45.286Z,20.10
2023-01-19T19:11:36.000Z,20.30
2023-01-19T19:15:21.068Z,20.80
2023-01-19T19:19:07.458Z,20.50
2023-01-19T19:22:52.737Z,21.40
2023-01-19T19:26:26.714Z,23.30
2023-01-19T19:30:12.487Z,23.40
2023-01-19T19:33:57.955Z,23.50
2023-01-19T19:37:42.938Z,24.30
2023-01-19T19:41:29.251Z,24.80
2023-01-19T19:45:14.724Z,24.40
2023-01-19T19:49:01.064Z,24.70
2023-01-19T19:52:46.508Z,26.30
2023-01-19T19:56:38.681Z,24.90
2023-01-19T20:00:32.847Z,24.50
2023-01-19T20:04:17.705Z,26.20
2023-01-19T20:08:02.079Z,28.10
2023-01-19T20:11:46.082Z,26.80
2023-01-19T20:15:29.970Z,26.70
2023-01-19T20:19:13.686Z,25.30
2023-01-19T20:22:57.589Z,38.70
2023-01-19T20:26:42.309Z,33.50
2023-01-19T20:30:18.561Z,36.50
2023-01-19T20:34:03.833Z,30.10
2023-01-19T20:37:49.565Z,28.00
2023-01-19T20:41:34.395Z,41.70
2023-01-19T20:45:19.329Z,28.90
2023-01-19T20:49:04.458Z,29.10
2023-01-19T20:52:49.393Z,40.50
2023-01-19T20:56:22.603Z,29.90
2023-01-19T21:00:07.571Z,28.10
2023-01-19T21:03:52.785Z,27.90
2023-01-19T21:07:36.686Z,28.10
2023-01-19T21:11:21.800Z,28.50
2023-01-19T21:14:59.607Z,27.50
2023-01-19T21:18:44.392Z,28.10
2023-01-19T21:22:30.026Z,26.90
2023-01-19T21:26:16.298Z,34.60
2023-01-19T21:30:01.364Z,33.00
2023-01-19T21:33:46.534Z,29.70
2023-01-19T21:37:23.117Z,26.50
2023-01-19T21:41:08.517Z,32.30
2023-01-19T21:44:52.242Z,47.70
2023-01-19T21:48:37.265Z,42.90
2023-01-19T21:52:22.800Z,32.60
2023-01-19T21:56:08.966Z,31.60
2023-01-19T21:59:54.021Z,26.60
2023-01-19T22:03:31.947Z,27.20
2023-01-19T22:07:16.937Z,26.70
2023-01-19T22:11:00.474Z,27.80
2023-01-19T22:14:30.370Z,30.00
2023-01-19T22:18:15.454Z,30.90
2023-01-19T22:22:11.899Z,31.50
2023-01-19T22:25:57.282Z,26.50
2023-01-19T22:29:42.708Z,24.80
2023-01-19T22:34:00.290Z,27.00
2023-01-19T22:37:46.482Z,24.40
2023-01-19T22:41:31.730Z,26.90
2023-01-19T22:45:17.384Z,33.80
2023-01-19T22:49:03.932Z,29.80
2023-01-19T22:52:40.447Z,26.00
2023-01-19T22:56:25.525Z,27.00
2023-01-19T23:00:02.010Z,30.30
2023-01-19T23:03:47.071Z,25.50
2023-01-19T23:07:31.645Z,25.70
2023-01-19T23:11:15.606Z,28.30
2023-01-19T23:15:01.725Z,32.20
2023-01-19T23:18:48.143Z,29.70
2023-01-19T23:22:33.583Z,30.90
2023-01-19T23:26:12.131Z,27.00
2023-01-19T23:29:57.396Z,23.10
2023-01-19T23:33:42.495Z,24.90
2023-01-19T23:37:27.885Z,25.00
2023-01-19T23:41:13.126Z,24.80
2023-01-19T23:44:58.638Z,23.90
2023-01-19T23:48:43.845Z,25.80
2023-01-19T23:52:29.432Z,26.80
2023-01-19T23:56:14.725Z,25.40
